sensor_id;sensor_type;location;lat;lon;timestamp;pressure;altitude;pressure_sealevel;temperature;humidity
64844;BME280;51310;52.198;5.422;2023-07-31T00:00:35;100762.47;;;15.42;85.34
64844;BME280;51310;52.198;5.422;2023-07-31T00:03:01;100770.03;;;15.48;85.39
64844;BME280;51310;52.198;5.422;2023-07-31T00:05:27;100775.38;;;15.59;85.35
64844;BME280;51310;52.198;5.422;2023-07-31T00:07:53;100766.81;;;15.54;85.56
64844;BME280;51310;52.198;5.422;2023-07-31T00:10:20;100773.53;;;15.60;85.66
64844;BME280;51310;52.198;5.422;2023-07-31T00:12:46;100773.28;;;15.63;85.85
64844;BME280;51310;52.198;5.422;2023-07-31T00:15:14;100765.78;;;15.67;85.93
64844;BME280;51310;52.198;5.422;2023-07-31T00:17:40;100770.91;;;15.70;85.96
64844;BME280;51310;52.198;5.422;2023-07-31T00:20:07;100743.66;;;15.63;85.79
64844;BME280;51310;52.198;5.422;2023-07-31T00:22:33;100747.19;;;15.64;85.82
64844;BME280;51310;52.198;5.422;2023-07-31T00:24:59;100741.78;;;15.64;85.71
64844;BME280;51310;52.198;5.422;2023-07-31T00:27:25;100733.91;;;15.51;86.12
64844;BME280;51310;52.198;5.422;2023-07-31T00:29:51;100755.00;;;15.67;86.31
64844;BME280;51310;52.198;5.422;2023-07-31T00:32:17;100739.63;;;15.57;86.52
64844;BME280;51310;52.198;5.422;2023-07-31T00:34:43;100745.28;;;15.54;86.59
64844;BME280;51310;52.198;5.422;2023-07-31T00:37:09;100744.16;;;15.57;86.80
64844;BME280;51310;52.198;5.422;2023-07-31T00:39:35;100724.47;;;15.56;86.78
64844;BME280;51310;52.198;5.422;2023-07-31T00:42:01;100753.66;;;15.72;87.02
64844;BME280;51310;52.198;5.422;2023-07-31T00:44:28;100722.66;;;15.67;87.21
64844;BME280;51310;52.198;5.422;2023-07-31T00:46:54;100746.03;;;15.77;87.05
64844;BME280;51310;52.198;5.422;2023-07-31T00:49:22;100744.78;;;15.81;87.37
64844;BME280;51310;52.198;5.422;2023-07-31T00:51:49;100746.47;;;15.82;87.29
64844;BME280;51310;52.198;5.422;2023-07-31T00:54:15;100740.00;;;15.85;87.21
64844;BME280;51310;52.198;5.422;2023-07-31T00:56:42;100733.28;;;15.79;87.27
64844;BME280;51310;52.198;5.422;2023-07-31T00:59:11;100729.28;;;15.74;87.39
64844;BME280;51310;52.198;5.422;2023-07-31T01:01:37;100726.44;;;15.75;87.42
64844;BME280;51310;52.198;5.422;2023-07-31T01:04:04;100743.84;;;15.92;87.41
64844;BME280;51310;52.198;5.422;2023-07-31T01:07:03;100742.00;;;15.93;87.41
64844;BME280;51310;52.198;5.422;2023-07-31T01:09:57;100747.53;;;15.91;87.54
64844;BME280;51310;52.198;5.422;2023-07-31T01:12:42;100720.22;;;15.75;87.35
64844;BME280;51310;52.198;5.422;2023-07-31T01:15:11;100730.06;;;15.86;87.43
64844;BME280;51310;52.198;5.422;2023-07-31T01:17:38;100751.47;;;15.87;87.22
64844;BME280;51310;52.198;5.422;2023-07-31T01:20:15;100735.28;;;15.87;87.44
64844;BME280;51310;52.198;5.422;2023-07-31T01:29:01;100731.59;;;15.78;87.63
64844;BME280;51310;52.198;5.422;2023-07-31T01:31:32;100746.34;;;15.84;87.78
64844;BME280;51310;52.198;5.422;2023-07-31T01:34:01;100717.56;;;15.64;87.62
64844;BME280;51310;52.198;5.422;2023-07-31T01:36:28;100708.03;;;15.59;87.86
64844;BME280;51310;52.198;5.422;2023-07-31T01:39:00;100712.56;;;15.59;87.75
64844;BME280;51310;52.198;5.422;2023-07-31T01:41:27;100736.66;;;15.72;88.01
64844;BME280;51310;52.198;5.422;2023-07-31T01:43:53;100725.00;;;15.71;87.84
64844;BME280;51310;52.198;5.422;2023-07-31T01:46:19;100709.28;;;15.55;88.04
64844;BME280;51310;52.198;5.422;2023-07-31T01:48:45;100727.09;;;15.68;88.09
64844;BME280;51310;52.198;5.422;2023-07-31T01:51:11;100698.50;;;15.55;88.01
64844;BME280;51310;52.198;5.422;2023-07-31T01:53:37;100723.28;;;15.70;88.02
64844;BME280;51310;52.198;5.422;2023-07-31T01:56:03;100715.09;;;15.72;88.33
64844;BME280;51310;52.198;5.422;2023-07-31T01:58:28;100714.41;;;15.79;88.30
64844;BME280;51310;52.198;5.422;2023-07-31T02:00:54;100719.72;;;15.91;88.08
64844;BME280;51310;52.198;5.422;2023-07-31T02:03:20;100697.13;;;15.82;88.22
64844;BME280;51310;52.198;5.422;2023-07-31T02:05:48;100693.06;;;15.88;88.17
64844;BME280;51310;52.198;5.422;2023-07-31T02:08:15;100703.34;;;16.03;88.30
64844;BME280;51310;52.198;5.422;2023-07-31T02:10:42;100679.91;;;15.94;88.26
64844;BME280;51310;52.198;5.422;2023-07-31T02:13:08;100688.00;;;16.04;88.22
64844;BME280;51310;52.198;5.422;2023-07-31T02:15:34;100691.88;;;16.11;88.36
64844;BME280;51310;52.198;5.422;2023-07-31T02:18:00;100664.59;;;16.05;88.04
64844;BME280;51310;52.198;5.422;2023-07-31T02:20:26;100682.41;;;16.17;88.08
64844;BME280;51310;52.198;5.422;2023-07-31T02:22:52;100691.44;;;16.16;87.98
64844;BME280;51310;52.198;5.422;2023-07-31T02:25:18;100680.66;;;16.16;87.92
64844;BME280;51310;52.198;5.422;2023-07-31T02:27:44;100679.09;;;16.13;87.65
64844;BME280;51310;52.198;5.422;2023-07-31T02:30:11;100668.75;;;16.18;87.71
64844;BME280;51310;52.198;5.422;2023-07-31T02:32:37;100680.44;;;16.29;87.61
64844;BME280;51310;52.198;5.422;2023-07-31T02:35:03;100666.81;;;16.30;87.26
64844;BME280;51310;52.198;5.422;2023-07-31T02:37:29;100666.53;;;16.33;87.11
64844;BME280;51310;52.198;5.422;2023-07-31T02:39:56;100677.03;;;16.36;87.09
64844;BME280;51310;52.198;5.422;2023-07-31T02:42:22;100668.53;;;16.41;87.14
64844;BME280;51310;52.198;5.422;2023-07-31T02:44:48;100677.03;;;16.36;86.99
64844;BME280;51310;52.198;5.422;2023-07-31T02:47:14;100655.88;;;16.22;87.25
64844;BME280;51310;52.198;5.422;2023-07-31T02:49:40;100662.69;;;16.26;86.97
64844;BME280;51310;52.198;5.422;2023-07-31T02:52:06;100667.97;;;16.37;87.23
64844;BME280;51310;52.198;5.422;2023-07-31T02:54:32;100665.53;;;16.34;87.03
64844;BME280;51310;52.198;5.422;2023-07-31T02:56:58;100639.97;;;16.19;86.97
64844;BME280;51310;52.198;5.422;2023-07-31T02:59:24;100664.28;;;16.38;87.22
64844;BME280;51310;52.198;5.422;2023-07-31T03:01:51;100627.91;;;16.23;86.86
64844;BME280;51310;52.198;5.422;2023-07-31T03:04:16;100655.75;;;16.33;87.17
64844;BME280;51310;52.198;5.422;2023-07-31T03:06:42;100655.03;;;16.31;87.00
64844;BME280;51310;52.198;5.422;2023-07-31T03:09:08;100656.03;;;16.30;87.09
64844;BME280;51310;52.198;5.422;2023-07-31T03:11:34;100637.28;;;16.19;87.07
64844;BME280;51310;52.198;5.422;2023-07-31T03:14:00;100661.44;;;16.30;87.21
64844;BME280;51310;52.198;5.422;2023-07-31T03:16:26;100660.84;;;16.27;87.30
64844;BME280;51310;52.198;5.422;2023-07-31T03:18:52;100644.38;;;16.20;87.11
64844;BME280;51310;52.198;5.422;2023-07-31T03:21:18;100667.50;;;16.32;87.06
64844;BME280;51310;52.198;5.422;2023-07-31T03:23:43;100641.78;;;16.18;86.94
64844;BME280;51310;52.198;5.422;2023-07-31T03:26:09;100632.84;;;16.18;87.06
64844;BME280;51310;52.198;5.422;2023-07-31T03:28:36;100636.97;;;16.12;86.87
64844;BME280;51310;52.198;5.422;2023-07-31T03:31:02;100633.41;;;16.12;86.91
64844;BME280;51310;52.198;5.422;2023-07-31T03:33:28;100640.41;;;16.24;87.10
64844;BME280;51310;52.198;5.422;2023-07-31T03:35:54;100650.59;;;16.20;87.12
64844;BME280;51310;52.198;5.422;2023-07-31T03:38:20;100632.00;;;16.08;87.03
64844;BME280;51310;52.198;5.422;2023-07-31T03:40:46;100648.06;;;16.19;87.04
64844;BME280;51310;52.198;5.422;2023-07-31T03:43:12;100641.94;;;16.17;86.94
64844;BME280;51310;52.198;5.422;2023-07-31T03:45:38;100648.75;;;16.21;86.83
64844;BME280;51310;52.198;5.422;2023-07-31T03:48:04;100651.59;;;16.19;86.82
64844;BME280;51310;52.198;5.422;2023-07-31T03:50:30;100647.78;;;16.22;86.45
64844;BME280;51310;52.198;5.422;2023-07-31T03:52:56;100646.06;;;16.21;86.52
64844;BME280;51310;52.198;5.422;2023-07-31T03:55:22;100650.88;;;16.17;86.47
64844;BME280;51310;52.198;5.422;2023-07-31T03:57:48;100640.94;;;16.18;86.53
64844;BME280;51310;52.198;5.422;2023-07-31T04:00:14;100637.84;;;16.22;86.28
64844;BME280;51310;52.198;5.422;2023-07-31T04:02:40;100635.56;;;16.18;86.10
64844;BME280;51310;52.198;5.422;2023-07-31T04:05:07;100640.66;;;16.21;85.85
64844;BME280;51310;52.198;5.422;2023-07-31T04:07:33;100619.22;;;16.10;85.71
64844;BME280;51310;52.198;5.422;2023-07-31T04:10:00;100632.56;;;16.21;85.85
64844;BME280;51310;52.198;5.422;2023-07-31T04:12:26;100631.88;;;16.19;85.71
64844;BME280;51310;52.198;5.422;2023-07-31T04:14:52;100595.22;;;16.07;85.49
64844;BME280;51310;52.198;5.422;2023-07-31T04:17:18;100619.66;;;16.15;85.65
64844;BME280;51310;52.198;5.422;2023-07-31T04:19:44;100611.28;;;16.18;85.69
64844;BME280;51310;52.198;5.422;2023-07-31T04:22:10;100606.31;;;16.23;85.59
64844;BME280;51310;52.198;5.422;2023-07-31T04:24:36;100598.94;;;16.15;85.60
64844;BME280;51310;52.198;5.422;2023-07-31T04:27:02;100588.72;;;16.09;85.52
64844;BME280;51310;52.198;5.422;2023-07-31T04:29:28;100597.94;;;16.16;85.77
64844;BME280;51310;52.198;5.422;2023-07-31T04:31:54;100584.44;;;16.07;85.48
64844;BME280;51310;52.198;5.422;2023-07-31T04:34:20;100603.63;;;16.23;85.66
64844;BME280;51310;52.198;5.422;2023-07-31T04:36:46;100608.06;;;16.24;85.19
64844;BME280;51310;52.198;5.422;2023-07-31T04:39:11;100605.34;;;16.24;84.98
64844;BME280;51310;52.198;5.422;2023-07-31T04:41:37;100612.31;;;16.27;84.86
64844;BME280;51310;52.198;5.422;2023-07-31T04:44:03;100609.31;;;16.20;84.79
64844;BME280;51310;52.198;5.422;2023-07-31T04:46:29;100605.91;;;16.18;84.75
64844;BME280;51310;52.198;5.422;2023-07-31T04:48:56;100577.63;;;16.02;84.69
64844;BME280;51310;52.198;5.422;2023-07-31T04:51:22;100591.56;;;16.08;84.71
64844;BME280;51310;52.198;5.422;2023-07-31T04:53:49;100588.41;;;16.02;84.89
64844;BME280;51310;52.198;5.422;2023-07-31T04:56:16;100593.13;;;16.10;84.98
64844;BME280;51310;52.198;5.422;2023-07-31T04:58:41;100571.09;;;15.95;85.03
64844;BME280;51310;52.198;5.422;2023-07-31T05:01:07;100588.72;;;16.09;85.25
64844;BME280;51310;52.198;5.422;2023-07-31T05:03:33;100582.75;;;16.06;85.37
64844;BME280;51310;52.198;5.422;2023-07-31T05:05:59;100581.47;;;16.00;85.69
64844;BME280;51310;52.198;5.422;2023-07-31T05:08:25;100570.53;;;16.01;85.64
64844;BME280;51310;52.198;5.422;2023-07-31T05:10:51;100558.72;;;15.83;85.76
64844;BME280;51310;52.198;5.422;2023-07-31T05:13:17;100574.78;;;15.94;85.89
64844;BME280;51310;52.198;5.422;2023-07-31T05:15:43;100563.41;;;15.81;86.04
64844;BME280;51310;52.198;5.422;2023-07-31T05:18:09;100568.28;;;15.97;86.07
64844;BME280;51310;52.198;5.422;2023-07-31T05:20:35;100580.91;;;15.96;86.19
64844;BME280;51310;52.198;5.422;2023-07-31T05:23:01;100559.28;;;15.87;86.05
64844;BME280;51310;52.198;5.422;2023-07-31T05:25:26;100568.53;;;15.94;85.91
64844;BME280;51310;52.198;5.422;2023-07-31T05:27:52;100556.34;;;15.90;86.18
64844;BME280;51310;52.198;5.422;2023-07-31T05:30:18;100555.75;;;15.96;85.90
64844;BME280;51310;52.198;5.422;2023-07-31T05:32:44;100541.00;;;15.90;85.80
64844;BME280;51310;52.198;5.422;2023-07-31T05:35:10;100557.50;;;15.97;85.85
64844;BME280;51310;52.198;5.422;2023-07-31T05:37:36;100555.94;;;15.94;85.95
64844;BME280;51310;52.198;5.422;2023-07-31T05:40:02;100535.03;;;15.87;86.09
64844;BME280;51310;52.198;5.422;2023-07-31T05:42:28;100559.91;;;16.00;86.00
64844;BME280;51310;52.198;5.422;2023-07-31T05:44:54;100533.91;;;15.89;85.98
64844;BME280;51310;52.198;5.422;2023-07-31T05:47:20;100548.28;;;15.99;86.04
64844;BME280;51310;52.198;5.422;2023-07-31T05:49:46;100541.31;;;15.97;86.42
64844;BME280;51310;52.198;5.422;2023-07-31T05:52:12;100545.44;;;16.11;86.72
64844;BME280;51310;52.198;5.422;2023-07-31T05:54:38;100524.00;;;15.99;86.86
64844;BME280;51310;52.198;5.422;2023-07-31T05:57:04;100523.72;;;16.02;87.10
64844;BME280;51310;52.198;5.422;2023-07-31T05:59:30;100538.50;;;16.18;87.33
64844;BME280;51310;52.198;5.422;2023-07-31T06:01:59;100532.81;;;16.01;86.87
64844;BME280;51310;52.198;5.422;2023-07-31T06:04:25;100516.91;;;15.89;86.86
64844;BME280;51310;52.198;5.422;2023-07-31T06:06:51;100537.91;;;15.95;87.12
64844;BME280;51310;52.198;5.422;2023-07-31T06:09:17;100519.47;;;16.00;87.00
64844;BME280;51310;52.198;5.422;2023-07-31T06:11:43;100537.50;;;15.99;87.09
64844;BME280;51310;52.198;5.422;2023-07-31T06:14:09;100525.16;;;15.97;86.84
64844;BME280;51310;52.198;5.422;2023-07-31T06:16:35;100526.44;;;16.12;86.73
64844;BME280;51310;52.198;5.422;2023-07-31T06:19:01;100530.53;;;16.16;86.52
64844;BME280;51310;52.198;5.422;2023-07-31T06:21:27;100523.75;;;16.22;86.38
64844;BME280;51310;52.198;5.422;2023-07-31T06:23:53;100522.31;;;16.18;86.27
64844;BME280;51310;52.198;5.422;2023-07-31T06:26:19;100514.94;;;16.30;85.96
64844;BME280;51310;52.198;5.422;2023-07-31T06:28:45;100514.41;;;16.26;86.00
64844;BME280;51310;52.198;5.422;2023-07-31T06:31:12;100519.78;;;16.26;85.87
64844;BME280;51310;52.198;5.422;2023-07-31T06:33:38;100484.88;;;16.15;85.81
64844;BME280;51310;52.198;5.422;2023-07-31T06:36:04;100489.56;;;16.13;85.73
64844;BME280;51310;52.198;5.422;2023-07-31T06:38:30;100493.09;;;16.23;85.53
64844;BME280;51310;52.198;5.422;2023-07-31T06:40:56;100492.53;;;16.29;85.63
64844;BME280;51310;52.198;5.422;2023-07-31T06:43:21;100492.38;;;16.40;85.38
64844;BME280;51310;52.198;5.422;2023-07-31T06:45:48;100493.41;;;16.39;85.42
64844;BME280;51310;52.198;5.422;2023-07-31T06:48:16;100490.81;;;16.38;85.37
64844;BME280;51310;52.198;5.422;2023-07-31T06:50:42;100484.00;;;16.43;85.40
64844;BME280;51310;52.198;5.422;2023-07-31T06:53:08;100485.72;;;16.44;85.33
64844;BME280;51310;52.198;5.422;2023-07-31T06:55:34;100485.31;;;16.39;85.42
64844;BME280;51310;52.198;5.422;2023-07-31T06:58:00;100487.69;;;16.42;85.67
64844;BME280;51310;52.198;5.422;2023-07-31T07:00:27;100478.34;;;16.47;85.66
64844;BME280;51310;52.198;5.422;2023-07-31T07:02:54;100482.44;;;16.51;85.71
64844;BME280;51310;52.198;5.422;2023-07-31T07:05:20;100489.53;;;16.52;85.69
64844;BME280;51310;52.198;5.422;2023-07-31T07:07:46;100479.75;;;16.51;85.59
64844;BME280;51310;52.198;5.422;2023-07-31T07:10:12;100484.28;;;16.60;85.46
64844;BME280;51310;52.198;5.422;2023-07-31T07:12:38;100477.75;;;16.62;85.53
64844;BME280;51310;52.198;5.422;2023-07-31T07:15:04;100486.81;;;16.71;85.65
64844;BME280;51310;52.198;5.422;2023-07-31T07:17:30;100458.44;;;16.57;85.56
64844;BME280;51310;52.198;5.422;2023-07-31T07:20:00;100481.44;;;16.71;85.44
64844;BME280;51310;52.198;5.422;2023-07-31T07:22:27;100450.47;;;16.65;85.49
64844;BME280;51310;52.198;5.422;2023-07-31T07:24:53;100474.03;;;16.73;85.28
64844;BME280;51310;52.198;5.422;2023-07-31T07:27:19;100447.94;;;16.64;85.39
64844;BME280;51310;52.198;5.422;2023-07-31T07:29:46;100456.03;;;16.64;85.49
64844;BME280;51310;52.198;5.422;2023-07-31T07:32:12;100466.66;;;16.75;85.30
64844;BME280;51310;52.198;5.422;2023-07-31T07:34:39;100471.91;;;16.87;85.44
64844;BME280;51310;52.198;5.422;2023-07-31T07:37:05;100472.88;;;16.85;85.49
64844;BME280;51310;52.198;5.422;2023-07-31T07:39:31;100473.59;;;16.88;85.53
64844;BME280;51310;52.198;5.422;2023-07-31T07:41:57;100461.13;;;16.87;85.36
64844;BME280;51310;52.198;5.422;2023-07-31T07:44:23;100456.38;;;16.89;85.18
64844;BME280;51310;52.198;5.422;2023-07-31T07:46:49;100461.22;;;16.95;85.44
64844;BME280;51310;52.198;5.422;2023-07-31T07:49:15;100450.84;;;16.90;85.56
64844;BME280;51310;52.198;5.422;2023-07-31T07:51:41;100457.09;;;16.91;85.76
64844;BME280;51310;52.198;5.422;2023-07-31T07:54:06;100427.88;;;16.76;85.90
64844;BME280;51310;52.198;5.422;2023-07-31T07:56:33;100441.91;;;16.90;85.83
64844;BME280;51310;52.198;5.422;2023-07-31T07:58:59;100445.00;;;16.95;85.90
64844;BME280;51310;52.198;5.422;2023-07-31T08:01:25;100442.47;;;16.93;85.85
64844;BME280;51310;52.198;5.422;2023-07-31T08:03:51;100460.75;;;17.09;85.63
64844;BME280;51310;52.198;5.422;2023-07-31T08:06:17;100464.56;;;17.06;85.83
64844;BME280;51310;52.198;5.422;2023-07-31T08:08:43;100450.34;;;17.14;85.64
64844;BME280;51310;52.198;5.422;2023-07-31T08:11:09;100450.88;;;17.18;85.61
64844;BME280;51310;52.198;5.422;2023-07-31T08:13:34;100430.44;;;17.15;85.37
64844;BME280;51310;52.198;5.422;2023-07-31T08:16:03;100441.00;;;17.36;85.16
64844;BME280;51310;52.198;5.422;2023-07-31T08:18:31;100427.19;;;17.39;85.11
64844;BME280;51310;52.198;5.422;2023-07-31T08:21:01;100439.66;;;17.50;84.84
64844;BME280;51310;52.198;5.422;2023-07-31T08:23:28;100420.63;;;17.42;84.80
64844;BME280;51310;52.198;5.422;2023-07-31T08:25:54;100435.22;;;17.49;84.67
64844;BME280;51310;52.198;5.422;2023-07-31T08:28:20;100437.66;;;17.52;84.82
64844;BME280;51310;52.198;5.422;2023-07-31T08:30:46;100438.03;;;17.57;84.64
64844;BME280;51310;52.198;5.422;2023-07-31T08:33:12;100428.25;;;17.56;84.52
64844;BME280;51310;52.198;5.422;2023-07-31T08:35:37;100423.13;;;17.53;84.58
64844;BME280;51310;52.198;5.422;2023-07-31T08:38:03;100437.25;;;17.65;84.57
64844;BME280;51310;52.198;5.422;2023-07-31T08:40:29;100418.09;;;17.58;84.58
64844;BME280;51310;52.198;5.422;2023-07-31T08:42:56;100407.28;;;17.58;84.53
64844;BME280;51310;52.198;5.422;2023-07-31T08:45:22;100437.34;;;17.73;84.25
64844;BME280;51310;52.198;5.422;2023-07-31T08:47:51;100427.53;;;17.82;84.06
64844;BME280;51310;52.198;5.422;2023-07-31T08:50:20;100440.03;;;17.83;83.75
64844;BME280;51310;52.198;5.422;2023-07-31T08:52:49;100425.91;;;17.89;83.68
64844;BME280;51310;52.198;5.422;2023-07-31T08:55:16;100431.69;;;17.94;83.52
64844;BME280;51310;52.198;5.422;2023-07-31T08:57:43;100432.47;;;18.04;83.56
64844;BME280;51310;52.198;5.422;2023-07-31T09:00:10;100435.50;;;18.01;83.26
64844;BME280;51310;52.198;5.422;2023-07-31T09:05:23;100435.88;;;18.06;83.49
64844;BME280;51310;52.198;5.422;2023-07-31T09:07:52;100431.19;;;18.17;83.40
64844;BME280;51310;52.198;5.422;2023-07-31T09:10:19;100428.47;;;18.35;83.01
64844;BME280;51310;52.198;5.422;2023-07-31T09:12:46;100437.72;;;18.24;83.24
64844;BME280;51310;52.198;5.422;2023-07-31T09:15:12;100443.97;;;18.06;83.63
64844;BME280;51310;52.198;5.422;2023-07-31T09:17:39;100436.47;;;18.00;84.30
64844;BME280;51310;52.198;5.422;2023-07-31T09:20:21;100420.25;;;17.82;84.37
64844;BME280;51310;52.198;5.422;2023-07-31T09:22:48;100416.72;;;18.00;84.69
64844;BME280;51310;52.198;5.422;2023-07-31T09:25:23;100428.38;;;18.00;84.69
64844;BME280;51310;52.198;5.422;2023-07-31T09:27:54;100418.09;;;18.04;84.68
64844;BME280;51310;52.198;5.422;2023-07-31T09:30:21;100425.44;;;18.12;84.21
64844;BME280;51310;52.198;5.422;2023-07-31T09:32:49;100424.84;;;18.26;84.19
64844;BME280;51310;52.198;5.422;2023-07-31T09:35:28;100419.06;;;18.39;84.30
64844;BME280;51310;52.198;5.422;2023-07-31T09:38:07;100408.09;;;18.40;83.94
64844;BME280;51310;52.198;5.422;2023-07-31T09:40:40;100406.03;;;18.60;83.12
64844;BME280;51310;52.198;5.422;2023-07-31T09:43:10;100390.56;;;18.52;82.85
64844;BME280;51310;52.198;5.422;2023-07-31T09:45:42;100393.28;;;18.52;82.30
64844;BME280;51310;52.198;5.422;2023-07-31T09:48:16;100400.25;;;18.81;82.17
64844;BME280;51310;52.198;5.422;2023-07-31T09:50:48;100384.59;;;18.67;81.87
64844;BME280;51310;52.198;5.422;2023-07-31T09:53:16;100410.06;;;18.82;82.19
64844;BME280;51310;52.198;5.422;2023-07-31T09:55:43;100393.50;;;18.85;81.76
64844;BME280;51310;52.198;5.422;2023-07-31T09:58:11;100416.50;;;18.81;82.06
64844;BME280;51310;52.198;5.422;2023-07-31T10:00:38;100388.41;;;18.56;82.54
64844;BME280;51310;52.198;5.422;2023-07-31T10:03:09;100409.91;;;18.58;83.06
64844;BME280;51310;52.198;5.422;2023-07-31T10:05:49;100406.38;;;18.39;83.53
64844;BME280;51310;52.198;5.422;2023-07-31T10:08:18;100411.22;;;18.54;83.62
64844;BME280;51310;52.198;5.422;2023-07-31T10:10:47;100408.13;;;18.48;83.53
64844;BME280;51310;52.198;5.422;2023-07-31T10:13:14;100408.44;;;18.45;83.99
64844;BME280;51310;52.198;5.422;2023-07-31T10:15:41;100395.19;;;18.34;83.76
64844;BME280;51310;52.198;5.422;2023-07-31T10:18:09;100414.81;;;18.36;84.13
64844;BME280;51310;52.198;5.422;2023-07-31T10:20:36;100402.81;;;18.39;84.49
64844;BME280;51310;52.198;5.422;2023-07-31T10:23:03;100385.19;;;18.35;84.29
64844;BME280;51310;52.198;5.422;2023-07-31T10:25:29;100409.06;;;18.39;84.29
64844;BME280;51310;52.198;5.422;2023-07-31T10:27:57;100407.28;;;18.48;84.26
64844;BME280;51310;52.198;5.422;2023-07-31T10:30:31;100395.00;;;18.62;83.45
64844;BME280;51310;52.198;5.422;2023-07-31T10:32:59;100409.47;;;18.97;82.99
64844;BME280;51310;52.198;5.422;2023-07-31T10:35:27;100403.06;;;19.06;82.46
64844;BME280;51310;52.198;5.422;2023-07-31T10:37:54;100400.78;;;19.19;82.35
64844;BME280;51310;52.198;5.422;2023-07-31T10:40:26;100401.06;;;19.08;82.40
64844;BME280;51310;52.198;5.422;2023-07-31T10:42:57;100408.84;;;19.03;82.18
64844;BME280;51310;52.198;5.422;2023-07-31T10:45:37;100400.72;;;19.03;82.11
64844;BME280;51310;52.198;5.422;2023-07-31T10:48:14;100396.97;;;19.04;81.60
64844;BME280;51310;52.198;5.422;2023-07-31T10:50:54;100391.84;;;18.92;81.58
64844;BME280;51310;52.198;5.422;2023-07-31T10:53:25;100401.38;;;19.05;81.64
64844;BME280;51310;52.198;5.422;2023-07-31T10:55:52;100411.13;;;18.89;81.95
64844;BME280;51310;52.198;5.422;2023-07-31T10:58:20;100410.69;;;18.76;82.09
64844;BME280;51310;52.198;5.422;2023-07-31T11:00:47;100402.91;;;18.55;82.35
64844;BME280;51310;52.198;5.422;2023-07-31T11:03:18;100402.72;;;18.48;82.79
64844;BME280;51310;52.198;5.422;2023-07-31T11:08:32;100409.00;;;18.49;83.46
64844;BME280;51310;52.198;5.422;2023-07-31T11:13:34;100406.31;;;18.57;83.15
64844;BME280;51310;52.198;5.422;2023-07-31T11:16:25;100395.28;;;18.50;83.07
64844;BME280;51310;52.198;5.422;2023-07-31T11:18:52;100413.88;;;18.71;82.88
64844;BME280;51310;52.198;5.422;2023-07-31T11:21:25;100406.00;;;18.86;82.72
64844;BME280;51310;52.198;5.422;2023-07-31T11:23:54;100400.06;;;19.17;82.58
64844;BME280;51310;52.198;5.422;2023-07-31T11:26:23;100383.00;;;19.25;81.40
64844;BME280;51310;52.198;5.422;2023-07-31T11:28:51;100384.22;;;19.30;80.57
64844;BME280;51310;52.198;5.422;2023-07-31T11:31:18;100406.03;;;19.29;80.66
64844;BME280;51310;52.198;5.422;2023-07-31T11:33:44;100404.25;;;19.03;81.62
64844;BME280;51310;52.198;5.422;2023-07-31T11:36:20;100389.78;;;18.86;82.15
64844;BME280;51310;52.198;5.422;2023-07-31T11:38:46;100405.38;;;18.92;82.65
64844;BME280;51310;52.198;5.422;2023-07-31T11:41:17;100398.00;;;19.03;82.50
64844;BME280;51310;52.198;5.422;2023-07-31T11:43:43;100395.50;;;19.18;82.64
64844;BME280;51310;52.198;5.422;2023-07-31T11:46:09;100392.69;;;19.35;81.97
64844;BME280;51310;52.198;5.422;2023-07-31T11:48:37;100377.78;;;19.31;81.43
64844;BME280;51310;52.198;5.422;2023-07-31T11:51:05;100400.53;;;19.55;80.98
64844;BME280;51310;52.198;5.422;2023-07-31T11:53:53;100393.72;;;19.43;80.81
64844;BME280;51310;52.198;5.422;2023-07-31T11:56:24;100393.72;;;19.34;80.83
64844;BME280;51310;52.198;5.422;2023-07-31T11:58:55;100389.97;;;19.27;80.91
64844;BME280;51310;52.198;5.422;2023-07-31T12:01:28;100379.25;;;19.09;81.07
64844;BME280;51310;52.198;5.422;2023-07-31T12:03:55;100379.69;;;18.97;81.46
64844;BME280;51310;52.198;5.422;2023-07-31T12:06:22;100399.59;;;18.87;81.85
64844;BME280;51310;52.198;5.422;2023-07-31T12:09:04;100369.94;;;18.51;82.53
64844;BME280;51310;52.198;5.422;2023-07-31T12:11:31;100368.34;;;18.41;83.03
64844;BME280;51310;52.198;5.422;2023-07-31T12:13:57;100403.25;;;18.52;83.00
64844;BME280;51310;52.198;5.422;2023-07-31T12:16:26;100400.41;;;18.54;83.32
64844;BME280;51310;52.198;5.422;2023-07-31T12:18:53;100402.63;;;18.58;83.69
64844;BME280;51310;52.198;5.422;2023-07-31T12:21:19;100377.38;;;18.49;83.43
64844;BME280;51310;52.198;5.422;2023-07-31T12:23:45;100369.25;;;18.49;83.39
64844;BME280;51310;52.198;5.422;2023-07-31T12:26:16;100388.75;;;18.61;83.37
64844;BME280;51310;52.198;5.422;2023-07-31T12:28:49;100381.47;;;18.62;83.57
64844;BME280;51310;52.198;5.422;2023-07-31T12:31:20;100378.16;;;18.68;83.40
64844;BME280;51310;52.198;5.422;2023-07-31T12:33:50;100353.44;;;18.63;83.28
64844;BME280;51310;52.198;5.422;2023-07-31T12:36:20;100359.63;;;18.81;82.97
64844;BME280;51310;52.198;5.422;2023-07-31T12:38:50;100366.00;;;18.72;82.84
64844;BME280;51310;52.198;5.422;2023-07-31T12:41:17;100343.38;;;18.55;83.00
64844;BME280;51310;52.198;5.422;2023-07-31T12:43:45;100354.75;;;18.59;83.14
64844;BME280;51310;52.198;5.422;2023-07-31T12:46:11;100348.16;;;18.53;83.27
64844;BME280;51310;52.198;5.422;2023-07-31T12:48:38;100365.78;;;18.65;83.63
64844;BME280;51310;52.198;5.422;2023-07-31T12:51:05;100364.09;;;18.64;83.34
64844;BME280;51310;52.198;5.422;2023-07-31T12:53:32;100371.06;;;18.67;83.40
64844;BME280;51310;52.198;5.422;2023-07-31T12:55:58;100360.03;;;18.68;83.07
64844;BME280;51310;52.198;5.422;2023-07-31T12:58:25;100355.25;;;18.80;83.06
64844;BME280;51310;52.198;5.422;2023-07-31T13:00:51;100355.47;;;18.95;83.00
64844;BME280;51310;52.198;5.422;2023-07-31T13:03:17;100357.72;;;19.16;82.40
64844;BME280;51310;52.198;5.422;2023-07-31T13:05:43;100350.69;;;19.31;81.46